Terminal Aerodrome Forecast
Issued by NWS

Home | Current Version | Previous Version | Text Only | Print | Product List | Glossary On
Versions: 1 2 3 4 5 6 7 8 9 10 11 12 13 14
000
FTUS42 TJSJ 181411 AAA
TAFJBQ
TAF AMD
TJBQ 181411Z 1814/1912 12007KT P6SM SCT030
     FM181700 12013KT P6SM VCTS SCT030CB BKN050
     FM182300 VRB06KT P6SM SCT030
      AMD NOT SKED 1902/1911=

USA.gov is the U.S. government's official web portal to all federal, state and local government web resources and services.